sensor_id;sensor_type;location;lat;lon;timestamp;temperature;humidity
11848;DHT22;5983;49.966;8.052;2022-09-17T00:01:15;11.40;99.90
11848;DHT22;5983;49.966;8.052;2022-09-17T00:03:43;11.30;99.90
11848;DHT22;5983;49.966;8.052;2022-09-17T00:06:15;11.30;99.90
11848;DHT22;5983;49.966;8.052;2022-09-17T00:08:41;11.30;99.90
11848;DHT22;5983;49.966;8.052;2022-09-17T00:11:11;11.30;99.90
11848;DHT22;5983;49.966;8.052;2022-09-17T00:13:40;11.30;99.90
11848;DHT22;5983;49.966;8.052;2022-09-17T00:16:09;11.30;99.90
11848;DHT22;5983;49.966;8.052;2022-09-17T00:18:37;11.30;99.90
11848;DHT22;5983;49.966;8.052;2022-09-17T00:21:07;11.30;99.90
11848;DHT22;5983;49.966;8.052;2022-09-17T00:23:41;11.30;99.90
11848;DHT22;5983;49.966;8.052;2022-09-17T00:26:08;11.20;99.90
11848;DHT22;5983;49.966;8.052;2022-09-17T00:28:35;11.20;99.90
11848;DHT22;5983;49.966;8.052;2022-09-17T00:31:07;11.20;99.90
11848;DHT22;5983;49.966;8.052;2022-09-17T00:33:35;11.20;99.90
11848;DHT22;5983;49.966;8.052;2022-09-17T00:36:04;11.20;99.90
11848;DHT22;5983;49.966;8.052;2022-09-17T00:38:32;11.10;99.90
11848;DHT22;5983;49.966;8.052;2022-09-17T00:40:59;11.10;99.90
11848;DHT22;5983;49.966;8.052;2022-09-17T00:43:33;11.10;99.90
11848;DHT22;5983;49.966;8.052;2022-09-17T00:46:04;11.10;99.90
11848;DHT22;5983;49.966;8.052;2022-09-17T00:48:37;11.10;99.90
11848;DHT22;5983;49.966;8.052;2022-09-17T00:51:05;11.10;99.90
11848;DHT22;5983;49.966;8.052;2022-09-17T00:53:36;11.00;99.90
11848;DHT22;5983;49.966;8.052;2022-09-17T00:56:10;11.00;99.90
11848;DHT22;5983;49.966;8.052;2022-09-17T00:58:45;11.00;99.90
11848;DHT22;5983;49.966;8.052;2022-09-17T01:01:13;10.90;99.90
11848;DHT22;5983;49.966;8.052;2022-09-17T01:03:41;10.90;99.90
11848;DHT22;5983;49.966;8.052;2022-09-17T01:06:14;10.80;99.90
11848;DHT22;5983;49.966;8.052;2022-09-17T01:08:56;10.80;99.90
11848;DHT22;5983;49.966;8.052;2022-09-17T01:11:44;10.80;99.90
11848;DHT22;5983;49.966;8.052;2022-09-17T01:14:36;10.70;99.90
11848;DHT22;5983;49.966;8.052;2022-09-17T01:17:15;10.80;99.90
11848;DHT22;5983;49.966;8.052;2022-09-17T01:20:06;10.70;99.90
11848;DHT22;5983;49.966;8.052;2022-09-17T01:22:59;10.70;99.90
11848;DHT22;5983;49.966;8.052;2022-09-17T01:25:57;10.70;99.90
11848;DHT22;5983;49.966;8.052;2022-09-17T01:28:43;10.70;99.90
11848;DHT22;5983;49.966;8.052;2022-09-17T01:31:29;10.70;99.90
11848;DHT22;5983;49.966;8.052;2022-09-17T01:34:10;10.70;99.90
11848;DHT22;5983;49.966;8.052;2022-09-17T01:36:54;10.70;99.90
11848;DHT22;5983;49.966;8.052;2022-09-17T01:39:33;10.70;99.90
11848;DHT22;5983;49.966;8.052;2022-09-17T01:42:14;10.60;99.90
11848;DHT22;5983;49.966;8.052;2022-09-17T01:44:49;10.70;99.90
11848;DHT22;5983;49.966;8.052;2022-09-17T01:47:26;10.70;99.90
11848;DHT22;5983;49.966;8.052;2022-09-17T01:50:02;10.70;99.90
11848;DHT22;5983;49.966;8.052;2022-09-17T01:52:36;10.70;99.90
11848;DHT22;5983;49.966;8.052;2022-09-17T01:55:09;10.70;99.90
11848;DHT22;5983;49.966;8.052;2022-09-17T01:57:41;10.70;99.90
11848;DHT22;5983;49.966;8.052;2022-09-17T02:00:14;10.60;99.90
11848;DHT22;5983;49.966;8.052;2022-09-17T02:02:47;10.60;99.90
11848;DHT22;5983;49.966;8.052;2022-09-17T02:05:21;10.70;99.90
11848;DHT22;5983;49.966;8.052;2022-09-17T02:07:55;10.60;99.90
11848;DHT22;5983;49.966;8.052;2022-09-17T02:10:28;10.60;99.90
11848;DHT22;5983;49.966;8.052;2022-09-17T02:13:02;10.60;99.90
11848;DHT22;5983;49.966;8.052;2022-09-17T02:15:37;10.60;99.90
11848;DHT22;5983;49.966;8.052;2022-09-17T02:18:14;10.70;99.90
11848;DHT22;5983;49.966;8.052;2022-09-17T02:20:53;10.70;99.90
11848;DHT22;5983;49.966;8.052;2022-09-17T02:23:32;10.70;99.90
11848;DHT22;5983;49.966;8.052;2022-09-17T02:26:05;10.80;99.90
11848;DHT22;5983;49.966;8.052;2022-09-17T02:28:40;10.80;99.90
11848;DHT22;5983;49.966;8.052;2022-09-17T02:31:10;10.80;99.90
11848;DHT22;5983;49.966;8.052;2022-09-17T02:33:40;10.90;99.90
11848;DHT22;5983;49.966;8.052;2022-09-17T02:36:10;10.90;99.90
11848;DHT22;5983;49.966;8.052;2022-09-17T02:38:42;11.00;99.90
11848;DHT22;5983;49.966;8.052;2022-09-17T02:41:13;11.00;99.90
11848;DHT22;5983;49.966;8.052;2022-09-17T02:43:50;11.00;99.90
11848;DHT22;5983;49.966;8.052;2022-09-17T02:46:38;11.10;99.90
11848;DHT22;5983;49.966;8.052;2022-09-17T02:49:38;11.20;99.90
11848;DHT22;5983;49.966;8.052;2022-09-17T02:52:33;11.20;99.90
11848;DHT22;5983;49.966;8.052;2022-09-17T02:55:16;11.20;99.90
11848;DHT22;5983;49.966;8.052;2022-09-17T02:57:50;11.20;99.90
11848;DHT22;5983;49.966;8.052;2022-09-17T03:00:23;11.20;99.90
11848;DHT22;5983;49.966;8.052;2022-09-17T03:02:56;11.20;99.90
11848;DHT22;5983;49.966;8.052;2022-09-17T03:05:28;11.20;99.90
11848;DHT22;5983;49.966;8.052;2022-09-17T03:07:58;11.20;99.90
11848;DHT22;5983;49.966;8.052;2022-09-17T03:10:26;11.20;99.90
11848;DHT22;5983;49.966;8.052;2022-09-17T03:12:58;11.20;99.90
11848;DHT22;5983;49.966;8.052;2022-09-17T03:15:25;11.20;99.90
11848;DHT22;5983;49.966;8.052;2022-09-17T03:17:52;11.20;99.90
11848;DHT22;5983;49.966;8.052;2022-09-17T03:20:19;11.20;99.90
11848;DHT22;5983;49.966;8.052;2022-09-17T03:22:48;11.20;99.90
11848;DHT22;5983;49.966;8.052;2022-09-17T03:25:16;11.20;99.90
11848;DHT22;5983;49.966;8.052;2022-09-17T03:27:43;11.20;99.90
11848;DHT22;5983;49.966;8.052;2022-09-17T03:30:10;11.20;99.90
11848;DHT22;5983;49.966;8.052;2022-09-17T03:32:37;11.20;99.90
11848;DHT22;5983;49.966;8.052;2022-09-17T03:35:04;11.20;99.90
11848;DHT22;5983;49.966;8.052;2022-09-17T03:37:31;11.30;99.90
11848;DHT22;5983;49.966;8.052;2022-09-17T03:40:00;11.30;99.90
11848;DHT22;5983;49.966;8.052;2022-09-17T03:42:27;11.30;99.90
11848;DHT22;5983;49.966;8.052;2022-09-17T03:44:54;11.30;99.90
11848;DHT22;5983;49.966;8.052;2022-09-17T03:47:21;11.30;99.90
11848;DHT22;5983;49.966;8.052;2022-09-17T03:49:48;11.30;99.90
11848;DHT22;5983;49.966;8.052;2022-09-17T03:52:16;11.30;99.90
11848;DHT22;5983;49.966;8.052;2022-09-17T03:54:43;11.30;99.90
11848;DHT22;5983;49.966;8.052;2022-09-17T03:57:11;11.30;99.90
11848;DHT22;5983;49.966;8.052;2022-09-17T03:59:39;11.40;99.90
11848;DHT22;5983;49.966;8.052;2022-09-17T04:02:05;11.40;99.90
11848;DHT22;5983;49.966;8.052;2022-09-17T04:04:32;11.40;99.90
11848;DHT22;5983;49.966;8.052;2022-09-17T04:06:59;11.40;99.90
11848;DHT22;5983;49.966;8.052;2022-09-17T04:09:26;11.40;99.90
11848;DHT22;5983;49.966;8.052;2022-09-17T04:11:53;11.40;99.90
11848;DHT22;5983;49.966;8.052;2022-09-17T04:14:21;11.40;99.90
11848;DHT22;5983;49.966;8.052;2022-09-17T04:16:48;11.50;99.90
11848;DHT22;5983;49.966;8.052;2022-09-17T04:19:15;11.50;99.90
11848;DHT22;5983;49.966;8.052;2022-09-17T04:21:42;11.40;99.90
11848;DHT22;5983;49.966;8.052;2022-09-17T04:24:09;11.40;99.90
11848;DHT22;5983;49.966;8.052;2022-09-17T04:26:36;11.50;99.90
11848;DHT22;5983;49.966;8.052;2022-09-17T04:29:03;11.50;99.90
11848;DHT22;5983;49.966;8.052;2022-09-17T04:31:31;11.50;99.90
11848;DHT22;5983;49.966;8.052;2022-09-17T04:33:58;11.50;99.90
11848;DHT22;5983;49.966;8.052;2022-09-17T04:36:25;11.50;99.90
11848;DHT22;5983;49.966;8.052;2022-09-17T04:38:51;11.50;99.90
11848;DHT22;5983;49.966;8.052;2022-09-17T04:41:19;11.40;99.90
11848;DHT22;5983;49.966;8.052;2022-09-17T04:43:45;11.40;99.90
11848;DHT22;5983;49.966;8.052;2022-09-17T04:46:12;11.50;99.90
11848;DHT22;5983;49.966;8.052;2022-09-17T04:48:42;11.50;99.90
11848;DHT22;5983;49.966;8.052;2022-09-17T04:51:09;11.50;99.90
11848;DHT22;5983;49.966;8.052;2022-09-17T04:53:36;11.50;99.90
11848;DHT22;5983;49.966;8.052;2022-09-17T04:56:04;11.50;99.90
11848;DHT22;5983;49.966;8.052;2022-09-17T04:58:31;11.50;99.90
11848;DHT22;5983;49.966;8.052;2022-09-17T05:00:58;11.50;99.90
11848;DHT22;5983;49.966;8.052;2022-09-17T05:03:25;11.40;99.90
11848;DHT22;5983;49.966;8.052;2022-09-17T05:05:53;11.40;99.90
11848;DHT22;5983;49.966;8.052;2022-09-17T05:08:20;11.40;99.90
11848;DHT22;5983;49.966;8.052;2022-09-17T05:10:48;11.40;99.90
11848;DHT22;5983;49.966;8.052;2022-09-17T05:13:15;11.30;99.90
11848;DHT22;5983;49.966;8.052;2022-09-17T05:15:43;11.30;99.90
11848;DHT22;5983;49.966;8.052;2022-09-17T05:18:10;11.30;99.90
11848;DHT22;5983;49.966;8.052;2022-09-17T05:20:37;11.30;99.90
11848;DHT22;5983;49.966;8.052;2022-09-17T05:23:06;11.30;99.90
11848;DHT22;5983;49.966;8.052;2022-09-17T05:25:32;11.20;99.90
11848;DHT22;5983;49.966;8.052;2022-09-17T05:28:02;11.30;99.90
11848;DHT22;5983;49.966;8.052;2022-09-17T05:30:29;11.30;99.90
11848;DHT22;5983;49.966;8.052;2022-09-17T05:32:59;11.40;99.90
11848;DHT22;5983;49.966;8.052;2022-09-17T05:35:28;11.40;99.90
11848;DHT22;5983;49.966;8.052;2022-09-17T05:37:57;11.40;99.90
11848;DHT22;5983;49.966;8.052;2022-09-17T05:40:26;11.40;99.90
11848;DHT22;5983;49.966;8.052;2022-09-17T05:42:57;11.50;99.90
11848;DHT22;5983;49.966;8.052;2022-09-17T05:45:25;11.50;99.90
11848;DHT22;5983;49.966;8.052;2022-09-17T05:47:56;11.50;99.90
11848;DHT22;5983;49.966;8.052;2022-09-17T05:50:24;11.50;99.90
11848;DHT22;5983;49.966;8.052;2022-09-17T05:52:51;11.50;99.90
11848;DHT22;5983;49.966;8.052;2022-09-17T05:55:20;11.50;99.90
11848;DHT22;5983;49.966;8.052;2022-09-17T05:57:50;11.60;99.90
11848;DHT22;5983;49.966;8.052;2022-09-17T06:00:17;11.60;99.90
11848;DHT22;5983;49.966;8.052;2022-09-17T06:02:44;11.60;99.90
11848;DHT22;5983;49.966;8.052;2022-09-17T06:05:11;11.70;99.90
11848;DHT22;5983;49.966;8.052;2022-09-17T06:07:38;11.80;99.90
11848;DHT22;5983;49.966;8.052;2022-09-17T06:10:06;11.90;99.90
11848;DHT22;5983;49.966;8.052;2022-09-17T06:12:33;12.10;99.90
11848;DHT22;5983;49.966;8.052;2022-09-17T06:15:02;12.20;99.90
11848;DHT22;5983;49.966;8.052;2022-09-17T06:17:32;12.20;99.90
11848;DHT22;5983;49.966;8.052;2022-09-17T06:19:59;12.30;99.90
11848;DHT22;5983;49.966;8.052;2022-09-17T06:22:27;12.30;99.90
11848;DHT22;5983;49.966;8.052;2022-09-17T06:24:54;12.40;99.90
11848;DHT22;5983;49.966;8.052;2022-09-17T06:27:21;12.80;99.90
11848;DHT22;5983;49.966;8.052;2022-09-17T06:29:48;13.70;99.90
11848;DHT22;5983;49.966;8.052;2022-09-17T06:32:16;14.90;99.90
11848;DHT22;5983;49.966;8.052;2022-09-17T06:34:43;15.90;99.90
11848;DHT22;5983;49.966;8.052;2022-09-17T06:37:10;16.70;99.90
11848;DHT22;5983;49.966;8.052;2022-09-17T06:39:37;16.90;99.90
11848;DHT22;5983;49.966;8.052;2022-09-17T06:42:05;16.90;99.90
11848;DHT22;5983;49.966;8.052;2022-09-17T06:44:32;17.00;99.90
11848;DHT22;5983;49.966;8.052;2022-09-17T06:46:59;17.10;99.90
11848;DHT22;5983;49.966;8.052;2022-09-17T06:49:28;17.30;99.90
11848;DHT22;5983;49.966;8.052;2022-09-17T06:51:55;17.40;99.90
11848;DHT22;5983;49.966;8.052;2022-09-17T06:54:23;17.40;99.90
11848;DHT22;5983;49.966;8.052;2022-09-17T06:56:50;17.50;99.90
11848;DHT22;5983;49.966;8.052;2022-09-17T06:59:17;17.70;99.90
11848;DHT22;5983;49.966;8.052;2022-09-17T07:01:46;17.60;99.90
11848;DHT22;5983;49.966;8.052;2022-09-17T07:04:13;17.30;99.90
11848;DHT22;5983;49.966;8.052;2022-09-17T07:06:44;17.00;99.90
11848;DHT22;5983;49.966;8.052;2022-09-17T07:09:11;16.60;99.90
11848;DHT22;5983;49.966;8.052;2022-09-17T07:11:38;16.30;99.90
11848;DHT22;5983;49.966;8.052;2022-09-17T07:14:05;16.10;99.90
11848;DHT22;5983;49.966;8.052;2022-09-17T07:16:32;16.00;99.90
11848;DHT22;5983;49.966;8.052;2022-09-17T07:19:01;16.50;99.90
11848;DHT22;5983;49.966;8.052;2022-09-17T07:21:29;17.40;99.90
11848;DHT22;5983;49.966;8.052;2022-09-17T07:23:57;18.30;99.90
11848;DHT22;5983;49.966;8.052;2022-09-17T07:26:27;19.30;99.90
11848;DHT22;5983;49.966;8.052;2022-09-17T07:28:57;19.50;99.90
11848;DHT22;5983;49.966;8.052;2022-09-17T07:31:24;19.50;99.90
11848;DHT22;5983;49.966;8.052;2022-09-17T07:33:53;19.40;99.90
11848;DHT22;5983;49.966;8.052;2022-09-17T07:36:22;19.00;99.90
11848;DHT22;5983;49.966;8.052;2022-09-17T07:38:49;18.60;99.90
11848;DHT22;5983;49.966;8.052;2022-09-17T07:41:17;18.30;99.90
11848;DHT22;5983;49.966;8.052;2022-09-17T07:43:44;18.30;99.90
11848;DHT22;5983;49.966;8.052;2022-09-17T07:46:13;18.30;99.90
11848;DHT22;5983;49.966;8.052;2022-09-17T07:48:41;18.00;99.90
11848;DHT22;5983;49.966;8.052;2022-09-17T07:51:14;17.70;99.90
11848;DHT22;5983;49.966;8.052;2022-09-17T07:53:41;17.50;99.90
11848;DHT22;5983;49.966;8.052;2022-09-17T07:56:08;17.50;99.90
11848;DHT22;5983;49.966;8.052;2022-09-17T07:58:37;17.50;99.90
11848;DHT22;5983;49.966;8.052;2022-09-17T08:01:05;17.30;99.90
11848;DHT22;5983;49.966;8.052;2022-09-17T08:03:33;17.00;99.90
11848;DHT22;5983;49.966;8.052;2022-09-17T08:06:02;16.70;99.90
11848;DHT22;5983;49.966;8.052;2022-09-17T08:08:30;17.40;99.90
11848;DHT22;5983;49.966;8.052;2022-09-17T08:11:01;18.90;99.90
11848;DHT22;5983;49.966;8.052;2022-09-17T08:13:28;20.20;99.90
11848;DHT22;5983;49.966;8.052;2022-09-17T08:16:00;20.90;99.90
11848;DHT22;5983;49.966;8.052;2022-09-17T08:18:28;21.70;99.90
11848;DHT22;5983;49.966;8.052;2022-09-17T08:20:56;22.80;99.90
11848;DHT22;5983;49.966;8.052;2022-09-17T08:23:24;23.40;99.90
11848;DHT22;5983;49.966;8.052;2022-09-17T08:25:52;23.20;99.90
11848;DHT22;5983;49.966;8.052;2022-09-17T08:28:19;22.40;99.90
11848;DHT22;5983;49.966;8.052;2022-09-17T08:30:46;21.50;99.90
11848;DHT22;5983;49.966;8.052;2022-09-17T08:33:16;21.40;99.90
11848;DHT22;5983;49.966;8.052;2022-09-17T08:35:50;22.20;99.90
11848;DHT22;5983;49.966;8.052;2022-09-17T08:38:17;22.50;99.90
11848;DHT22;5983;49.966;8.052;2022-09-17T08:40:55;23.40;99.90
11848;DHT22;5983;49.966;8.052;2022-09-17T08:43:30;24.10;99.90
11848;DHT22;5983;49.966;8.052;2022-09-17T08:46:01;24.40;96.90
11848;DHT22;5983;49.966;8.052;2022-09-17T08:48:35;23.60;95.80
11848;DHT22;5983;49.966;8.052;2022-09-17T08:51:13;22.50;97.70
11848;DHT22;5983;49.966;8.052;2022-09-17T08:53:57;21.30;99.50
11848;DHT22;5983;49.966;8.052;2022-09-17T08:56:29;20.30;99.90
11848;DHT22;5983;49.966;8.052;2022-09-17T08:59:04;20.20;99.90
11848;DHT22;5983;49.966;8.052;2022-09-17T09:01:44;21.30;99.90
11848;DHT22;5983;49.966;8.052;2022-09-17T09:04:53;22.90;99.90
11848;DHT22;5983;49.966;8.052;2022-09-17T09:07:28;24.70;98.20
11848;DHT22;5983;49.966;8.052;2022-09-17T09:10:07;25.60;95.00
11848;DHT22;5983;49.966;8.052;2022-09-17T09:12:41;25.20;93.40
11848;DHT22;5983;49.966;8.052;2022-09-17T09:15:20;24.20;95.20
11848;DHT22;5983;49.966;8.052;2022-09-17T09:17:57;23.40;96.60
11848;DHT22;5983;49.966;8.052;2022-09-17T09:20:38;23.10;97.70
11848;DHT22;5983;49.966;8.052;2022-09-17T09:23:14;23.20;97.30
11848;DHT22;5983;49.966;8.052;2022-09-17T09:25:52;23.20;95.60
11848;DHT22;5983;49.966;8.052;2022-09-17T09:28:45;23.20;94.20
11848;DHT22;5983;49.966;8.052;2022-09-17T09:34:37;22.70;95.50
11848;DHT22;5983;49.966;8.052;2022-09-17T09:37:11;21.90;96.50
11848;DHT22;5983;49.966;8.052;2022-09-17T09:39:44;21.10;97.80
11848;DHT22;5983;49.966;8.052;2022-09-17T09:42:21;20.30;98.60
11848;DHT22;5983;49.966;8.052;2022-09-17T09:44:57;19.50;99.90
11848;DHT22;5983;49.966;8.052;2022-09-17T09:47:40;18.90;99.90
11848;DHT22;5983;49.966;8.052;2022-09-17T09:50:29;18.60;99.90
11848;DHT22;5983;49.966;8.052;2022-09-17T09:53:11;18.30;99.90
11848;DHT22;5983;49.966;8.052;2022-09-17T09:56:05;18.10;99.90
11848;DHT22;5983;49.966;8.052;2022-09-17T09:58:47;17.90;99.90
11848;DHT22;5983;49.966;8.052;2022-09-17T10:01:16;17.60;99.90
11848;DHT22;5983;49.966;8.052;2022-09-17T10:03:45;17.40;99.90
11848;DHT22;5983;49.966;8.052;2022-09-17T10:06:15;17.40;99.90
11848;DHT22;5983;49.966;8.052;2022-09-17T10:09:10;17.40;99.90
11848;DHT22;5983;49.966;8.052;2022-09-17T10:11:39;17.30;99.90
11848;DHT22;5983;49.966;8.052;2022-09-17T10:14:14;17.70;99.90
11848;DHT22;5983;49.966;8.052;2022-09-17T10:16:48;18.40;99.90
11848;DHT22;5983;49.966;8.052;2022-09-17T10:19:19;18.90;99.90
11848;DHT22;5983;49.966;8.052;2022-09-17T10:21:50;19.00;99.90
11848;DHT22;5983;49.966;8.052;2022-09-17T10:24:24;19.00;99.90
11848;DHT22;5983;49.966;8.052;2022-09-17T10:26:59;19.00;99.90
11848;DHT22;5983;49.966;8.052;2022-09-17T10:29:28;18.80;99.90
11848;DHT22;5983;49.966;8.052;2022-09-17T10:31:57;18.70;99.90
11848;DHT22;5983;49.966;8.052;2022-09-17T10:34:26;18.60;99.90
11848;DHT22;5983;49.966;8.052;2022-09-17T10:36:54;18.70;99.90
11848;DHT22;5983;49.966;8.052;2022-09-17T10:39:32;19.10;99.90
11848;DHT22;5983;49.966;8.052;2022-09-17T10:42:02;20.10;99.90
11848;DHT22;5983;49.966;8.052;2022-09-17T10:44:32;21.10;99.50
11848;DHT22;5983;49.966;8.052;2022-09-17T10:47:12;22.00;98.00
11848;DHT22;5983;49.966;8.052;2022-09-17T10:49:46;22.80;95.50
11848;DHT22;5983;49.966;8.052;2022-09-17T10:52:23;23.50;93.60
11848;DHT22;5983;49.966;8.052;2022-09-17T10:55:12;24.10;92.30
11848;DHT22;5983;49.966;8.052;2022-09-17T10:57:56;24.40;90.00
11848;DHT22;5983;49.966;8.052;2022-09-17T11:00:37;24.40;88.60
11848;DHT22;5983;49.966;8.052;2022-09-17T11:03:37;24.20;88.40
11848;DHT22;5983;49.966;8.052;2022-09-17T11:06:36;23.90;86.80
11848;DHT22;5983;49.966;8.052;2022-09-17T11:09:32;23.60;86.10
11848;DHT22;5983;49.966;8.052;2022-09-17T11:12:23;23.20;87.00
11848;DHT22;5983;49.966;8.052;2022-09-17T11:15:02;22.70;87.40
11848;DHT22;5983;49.966;8.052;2022-09-17T11:17:57;22.20;86.40
11848;DHT22;5983;49.966;8.052;2022-09-17T11:20:57;21.70;87.20
11848;DHT22;5983;49.966;8.052;2022-09-17T11:24:02;21.80;88.90
11848;DHT22;5983;49.966;8.052;2022-09-17T11:26:50;22.30;87.60
11848;DHT22;5983;49.966;8.052;2022-09-17T11:29:43;22.80;88.10
11848;DHT22;5983;49.966;8.052;2022-09-17T11:32:58;23.20;87.90
11848;DHT22;5983;49.966;8.052;2022-09-17T11:35:46;23.50;82.60
11848;DHT22;5983;49.966;8.052;2022-09-17T11:38:19;23.60;81.40
11848;DHT22;5983;49.966;8.052;2022-09-17T11:40:58;23.50;80.60
11848;DHT22;5983;49.966;8.052;2022-09-17T11:43:30;23.40;82.20
11848;DHT22;5983;49.966;8.052;2022-09-17T11:46:04;23.40;81.90
11848;DHT22;5983;49.966;8.052;2022-09-17T11:48:38;23.50;80.10
11848;DHT22;5983;49.966;8.052;2022-09-17T11:51:26;23.50;80.10
11848;DHT22;5983;49.966;8.052;2022-09-17T11:54:01;23.60;81.50
11848;DHT22;5983;49.966;8.052;2022-09-17T11:56:42;23.70;81.90
11848;DHT22;5983;49.966;8.052;2022-09-17T11:59:13;23.70;79.30
11848;DHT22;5983;49.966;8.052;2022-09-17T12:01:49;23.80;81.60
11848;DHT22;5983;49.966;8.052;2022-09-17T12:04:36;23.90;81.00
11848;DHT22;5983;49.966;8.052;2022-09-17T12:07:30;23.90;77.10
11848;DHT22;5983;49.966;8.052;2022-09-17T12:10:31;23.70;76.30
11848;DHT22;5983;49.966;8.052;2022-09-17T12:13:09;23.60;76.90
11848;DHT22;5983;49.966;8.052;2022-09-17T12:15:46;23.30;76.50
11848;DHT22;5983;49.966;8.052;2022-09-17T12:18:31;23.30;76.00
11848;DHT22;5983;49.966;8.052;2022-09-17T12:21:14;23.70;75.60
11848;DHT22;5983;49.966;8.052;2022-09-17T12:23:48;23.80;74.20
11848;DHT22;5983;49.966;8.052;2022-09-17T12:26:32;23.70;76.00
11848;DHT22;5983;49.966;8.052;2022-09-17T12:29:24;23.50;74.40
11848;DHT22;5983;49.966;8.052;2022-09-17T12:32:13;23.70;75.60
11848;DHT22;5983;49.966;8.052;2022-09-17T12:34:59;24.00;73.40
11848;DHT22;5983;49.966;8.052;2022-09-17T12:37:38;24.00;72.40
11848;DHT22;5983;49.966;8.052;2022-09-17T12:40:22;24.00;73.70
11848;DHT22;5983;49.966;8.052;2022-09-17T12:43:08;24.10;73.80
11848;DHT22;5983;49.966;8.052;2022-09-17T12:45:56;24.20;72.20
11848;DHT22;5983;49.966;8.052;2022-09-17T12:48:55;24.10;72.90
11848;DHT22;5983;49.966;8.052;2022-09-17T12:51:49;24.00;71.00
11848;DHT22;5983;49.966;8.052;2022-09-17T12:54:32;23.80;72.70
11848;DHT22;5983;49.966;8.052;2022-09-17T12:57:19;23.30;74.00
11848;DHT22;5983;49.966;8.052;2022-09-17T12:59:57;22.80;72.60
11848;DHT22;5983;49.966;8.052;2022-09-17T13:02:32;22.40;73.40
11848;DHT22;5983;49.966;8.052;2022-09-17T13:05:41;22.10;74.70
11848;DHT22;5983;49.966;8.052;2022-09-17T13:08:51;21.70;77.50
11848;DHT22;5983;49.966;8.052;2022-09-17T13:11:54;21.30;78.60
11848;DHT22;5983;49.966;8.052;2022-09-17T13:14:47;21.10;78.70
11848;DHT22;5983;49.966;8.052;2022-09-17T13:17:30;21.10;78.50
11848;DHT22;5983;49.966;8.052;2022-09-17T13:20:12;21.00;79.00
11848;DHT22;5983;49.966;8.052;2022-09-17T13:22:44;20.80;80.20
11848;DHT22;5983;49.966;8.052;2022-09-17T13:25:16;20.70;82.80
11848;DHT22;5983;49.966;8.052;2022-09-17T13:27:45;20.30;85.60
11848;DHT22;5983;49.966;8.052;2022-09-17T13:30:15;20.00;87.90
11848;DHT22;5983;49.966;8.052;2022-09-17T13:32:50;19.70;89.30
11848;DHT22;5983;49.966;8.052;2022-09-17T13:35:46;19.30;90.40
11848;DHT22;5983;49.966;8.052;2022-09-17T13:38:17;19.00;92.20
11848;DHT22;5983;49.966;8.052;2022-09-17T13:40:47;18.70;93.40
11848;DHT22;5983;49.966;8.052;2022-09-17T13:43:17;18.30;94.90
11848;DHT22;5983;49.966;8.052;2022-09-17T13:46:15;17.90;96.40
11848;DHT22;5983;49.966;8.052;2022-09-17T13:48:59;17.50;99.30
11848;DHT22;5983;49.966;8.052;2022-09-17T13:51:48;17.20;99.90
11848;DHT22;5983;49.966;8.052;2022-09-17T13:54:19;17.10;99.90
11848;DHT22;5983;49.966;8.052;2022-09-17T13:57:01;17.40;99.90
11848;DHT22;5983;49.966;8.052;2022-09-17T13:59:38;17.60;99.90
11848;DHT22;5983;49.966;8.052;2022-09-17T14:02:32;17.80;99.90
11848;DHT22;5983;49.966;8.052;2022-09-17T14:05:33;17.90;99.90
11848;DHT22;5983;49.966;8.052;2022-09-17T14:08:13;17.90;99.90
11848;DHT22;5983;49.966;8.052;2022-09-17T14:10:59;17.90;99.90
11848;DHT22;5983;49.966;8.052;2022-09-17T14:13:51;17.80;99.90
11848;DHT22;5983;49.966;8.052;2022-09-17T14:16:39;17.90;99.90
11848;DHT22;5983;49.966;8.052;2022-09-17T14:19:30;18.10;99.90
11848;DHT22;5983;49.966;8.052;2022-09-17T14:22:11;18.10;99.90
11848;DHT22;5983;49.966;8.052;2022-09-17T14:24:45;18.10;99.90
11848;DHT22;5983;49.966;8.052;2022-09-17T14:27:40;17.90;99.90
11848;DHT22;5983;49.966;8.052;2022-09-17T14:30:21;17.70;99.90
11848;DHT22;5983;49.966;8.052;2022-09-17T14:33:02;17.50;99.90
11848;DHT22;5983;49.966;8.052;2022-09-17T14:35:36;17.40;99.90
11848;DHT22;5983;49.966;8.052;2022-09-17T14:38:10;17.20;99.90
11848;DHT22;5983;49.966;8.052;2022-09-17T14:40:42;17.10;99.90
11848;DHT22;5983;49.966;8.052;2022-09-17T14:43:17;16.90;99.90
11848;DHT22;5983;49.966;8.052;2022-09-17T14:45:50;16.70;99.90
11848;DHT22;5983;49.966;8.052;2022-09-17T14:48:29;16.50;99.90
11848;DHT22;5983;49.966;8.052;2022-09-17T14:51:26;16.20;99.90
11848;DHT22;5983;49.966;8.052;2022-09-17T14:54:24;16.00;99.90
11848;DHT22;5983;49.966;8.052;2022-09-17T14:56:55;15.80;99.90
11848;DHT22;5983;49.966;8.052;2022-09-17T14:59:45;15.70;99.90
11848;DHT22;5983;49.966;8.052;2022-09-17T15:02:28;15.70;99.90
11848;DHT22;5983;49.966;8.052;2022-09-17T15:04:58;15.80;99.90
11848;DHT22;5983;49.966;8.052;2022-09-17T15:07:26;15.80;99.90
11848;DHT22;5983;49.966;8.052;2022-09-17T15:10:05;15.90;99.90
11848;DHT22;5983;49.966;8.052;2022-09-17T15:12:34;15.90;99.90
11848;DHT22;5983;49.966;8.052;2022-09-17T15:15:01;15.90;99.90
11848;DHT22;5983;49.966;8.052;2022-09-17T15:17:30;15.90;99.90
11848;DHT22;5983;49.966;8.052;2022-09-17T15:20:02;15.90;99.90
11848;DHT22;5983;49.966;8.052;2022-09-17T15:22:34;15.80;99.90
11848;DHT22;5983;49.966;8.052;2022-09-17T15:25:05;15.80;99.90
11848;DHT22;5983;49.966;8.052;2022-09-17T15:27:35;15.80;99.90
11848;DHT22;5983;49.966;8.052;2022-09-17T15:30:08;15.80;99.90
11848;DHT22;5983;49.966;8.052;2022-09-17T15:32:46;15.80;99.90
11848;DHT22;5983;49.966;8.052;2022-09-17T15:35:21;15.70;99.90
11848;DHT22;5983;49.966;8.052;2022-09-17T15:37:53;15.70;99.90
11848;DHT22;5983;49.966;8.052;2022-09-17T15:40:29;15.60;99.90
11848;DHT22;5983;49.966;8.052;2022-09-17T15:43:03;15.60;99.90
11848;DHT22;5983;49.966;8.052;2022-09-17T15:45:40;15.50;99.90
11848;DHT22;5983;49.966;8.052;2022-09-17T15:48:21;15.40;99.90
11848;DHT22;5983;49.966;8.052;2022-09-17T15:51:01;15.30;99.90
11848;DHT22;5983;49.966;8.052;2022-09-17T15:53:30;15.20;99.90
11848;DHT22;5983;49.966;8.052;2022-09-17T15:56:04;15.10;99.90
11848;DHT22;5983;49.966;8.052;2022-09-17T15:58:36;15.10;99.90
11848;DHT22;5983;49.966;8.052;2022-09-17T16:04:29;15.00;99.90
11848;DHT22;5983;49.966;8.052;2022-09-17T16:09:53;15.10;99.90
11848;DHT22;5983;49.966;8.052;2022-09-17T16:12:25;15.10;99.90
11848;DHT22;5983;49.966;8.052;2022-09-17T16:14:55;15.10;99.90
11848;DHT22;5983;49.966;8.052;2022-09-17T16:17:28;15.00;99.90
11848;DHT22;5983;49.966;8.052;2022-09-17T16:20:08;14.90;99.90
11848;DHT22;5983;49.966;8.052;2022-09-17T16:22:39;14.80;99.90
11848;DHT22;5983;49.966;8.052;2022-09-17T16:25:07;14.70;99.90
11848;DHT22;5983;49.966;8.052;2022-09-17T16:27:41;14.60;99.90
11848;DHT22;5983;49.966;8.052;2022-09-17T16:30:15;14.50;99.90
11848;DHT22;5983;49.966;8.052;2022-09-17T16:32:44;14.40;99.90
11848;DHT22;5983;49.966;8.052;2022-09-17T16:35:14;14.30;99.90
11848;DHT22;5983;49.966;8.052;2022-09-17T16:37:42;14.30;99.90
11848;DHT22;5983;49.966;8.052;2022-09-17T16:40:10;14.20;99.90
11848;DHT22;5983;49.966;8.052;2022-09-17T16:42:38;14.20;99.90